| time (UTC) | temp F | wind direction | speed MPH | gust MPH | rain 1hr in | rain 24hr in | rain mn in | humidity % | barometer mb |
| 20260505153105 | 69 | 213 | 1.0 | 5.0 | 0.00 | 0.00 | 0.00 | 62 | 1013.9 |
| 20260505151548 | 67 | 265 | 1.0 | 5.0 | 0.00 | 0.00 | 0.00 | 65 | 1014.2 |
| 20260505124605 | 58 | 215 | 0.0 | 4.0 | 0.00 | 0.00 | 0.00 | 76 | 1014.3 |
| 20260505123110 | 56 | 207 | 0.0 | 1.0 | 0.00 | 0.00 | 0.00 | 79 | 1013.7 |
| 20260505121552 | 56 | 207 | 0.0 | 1.0 | 0.00 | 0.00 | 0.00 | 79 | 1013.5 |
| 20260505120053 | 55 | 208 | 0.0 | 0.0 | 0.00 | 0.00 | 0.00 | 79 | 1013.4 |
| 20260505114558 | 54 | 209 | 0.0 | 0.0 | 0.00 | 0.00 | 0.00 | 78 | 1013.2 |
| 20260505113051 | 54 | 208 | 0.0 | 2.0 | 0.00 | 0.00 | 0.00 | 77 | 1013.1 |
| 20260505111545 | 54 | 208 | 0.0 | 1.0 | 0.00 | 0.00 | 0.00 | 75 | 1012.9 |
| 20260505101557 | 57 | 207 | 0.0 | 1.0 | 0.00 | 0.00 | 0.00 | 68 | 1012.2 |
| 20260505100038 | 57 | 208 | 0.0 | 3.0 | 0.00 | 0.00 | 0.00 | 66 | 1012.2 |
| 20260505094536 | 57 | 207 | 1.0 | 3.0 | 0.00 | 0.00 | 0.00 | 67 | 1012.2 |
| 20260505093018 | 56 | 225 | 0.0 | 4.0 | 0.00 | 0.00 | 0.00 | 69 | 1012.3 |
| 20260505091527 | 56 | 238 | 0.0 | 4.0 | 0.00 | 0.00 | 0.00 | 70 | 1012.3 |
| 20260505090110 | 55 | 256 | 0.0 | 3.0 | 0.00 | 0.00 | 0.00 | 72 | 1012.1 |
| 20260505084600 | 55 | 214 | 0.0 | 1.0 | 0.00 | 0.00 | 0.00 | 71 | 1012.1 |
| 20260505083041 | 55 | 214 | 0.0 | 1.0 | 0.00 | 0.00 | 0.00 | 71 | 1012.2 |
| 20260505081546 | 55 | 217 | 0.0 | 0.0 | 0.00 | 0.00 | 0.00 | 70 | 1012.4 |
| 20260505080044 | 56 | 217 | 0.0 | 0.0 | 0.00 | 0.00 | 0.00 | 71 | 1012.6 |
| 20260505074528 | 56 | 217 | 0.0 | 0.0 | 0.00 | 0.00 | 0.00 | 68 | 1012.6 |
| 20260505073029 | 57 | 217 | 0.0 | 0.0 | 0.00 | 0.00 | 0.00 | 68 | 1012.7 |
| 20260505071525 | 57 | 217 | 0.0 | 0.0 | 0.00 | 0.00 | 0.00 | 66 | 1012.8 |
| 20260505070025 | 59 | 217 | 0.0 | 0.0 | 0.00 | 0.00 | 0.00 | 65 | 1012.9 |
| 20260505064524 | 59 | 217 | 1.0 | 4.0 | 0.00 | 0.00 | 0.00 | 62 | 1012.9 |
| 20260505063024 | 60 | 207 | 0.0 | 2.0 | 0.00 | 0.00 | 0.00 | 62 | 1013.0 |
| 20260505061523 | 60 | 208 | 0.0 | 4.0 | 0.00 | 0.00 | 0.00 | 60 | 1013.1 |
| 20260505060013 | 60 | 192 | 1.0 | 6.0 | 0.00 | 0.00 | 0.00 | 60 | 1013.1 |
| 20260505054507 | 61 | 317 | 0.0 | 3.0 | 0.00 | 0.00 | 0.00 | 62 | 1013.1 |
| 20260505053047 | 61 | 194 | 0.0 | 4.0 | 0.00 | 0.00 | 0.00 | 60 | 1013.2 |
| 20260505051547 | 60 | 236 | 1.0 | 0.0 | 1.30 | 0.00 | 0.00 | 62 | 1013.2 |
| 20260505041521 | 60 | 176 | 0.0 | 0.0 | 0.00 | 0.00 | 0.00 | 62 | 1013.1 |
| 20260505040059 | 61 | 176 | 0.0 | 2.0 | 0.00 | 0.00 | 0.00 | 61 | 1013.2 |
| 20260505034551 | 60 | 193 | 2.0 | 5.0 | 0.00 | 0.00 | 0.00 | 60 | 1013.3 |
| 20260505033036 | 60 | 245 | 1.0 | 3.0 | 0.00 | 0.00 | 0.00 | 62 | 1013.2 |
| 20260505031635 | 60 | 250 | 0.0 | 2.0 | 0.00 | 0.00 | 0.00 | 62 | 1013.3 |
| 20260505030016 | 61 | 244 | 0.0 | 0.0 | 0.00 | 0.00 | 0.00 | 61 | 1013.2 |
| 20260505024518 | 62 | 245 | 0.0 | 0.0 | 0.00 | 0.00 | 0.00 | 60 | 1013.3 |
| 20260505023058 | 63 | 243 | 0.0 | 0.0 | 0.00 | 0.00 | 0.00 | 58 | 1013.3 |
| 20260505021557 | 63 | 238 | 0.0 | 2.0 | 0.00 | 0.00 | 0.00 | 56 | 1013.4 |
| 20260505020045 | 64 | 238 | 0.0 | 2.0 | 0.00 | 0.00 | 0.00 | 55 | 1013.2 |
| 20260505014602 | 65 | 238 | 0.0 | 4.0 | 0.00 | 0.00 | 0.00 | 51 | 1013.0 |
| 20260505013043 | 65 | 183 | 0.0 | 3.0 | 0.00 | 0.00 | 0.00 | 51 | 1012.9 |
| 20260505011543 | 66 | 215 | 0.0 | 3.0 | 0.00 | 0.00 | 0.00 | 50 | 1012.9 |
| 20260505010042 | 66 | 207 | 0.0 | 5.0 | 0.00 | 0.00 | 0.00 | 51 | 1012.8 |
| 20260505004545 | 67 | 210 | 0.0 | 6.0 | 0.00 | 0.00 | 0.00 | 53 | 1012.6 |
| 20260505003041 | 67 | 205 | 0.0 | 9.0 | 0.00 | 0.00 | 0.00 | 54 | 1012.4 |
| 20260505001547 | 68 | 194 | 1.0 | 6.0 | 0.00 | 0.00 | 0.00 | 54 | 1012.5 |
| 20260505000034 | 69 | 219 | 1.0 | 4.0 | 0.00 | 0.00 | 0.00 | 54 | 1012.3 |
| 20260504234528 | 70 | 217 | 1.0 | 6.0 | 0.00 | 0.00 | 0.00 | 55 | 1012.4 |
| 20260504233031 | 70 | 223 | 1.0 | 5.0 | 0.00 | 0.00 | 0.00 | 54 | 1012.3 |
| 20260504231526 | 71 | 230 | 2.0 | 7.0 | 0.00 | 0.00 | 0.00 | 51 | 1012.5 |
| 20260504230025 | 72 | 198 | 2.0 | 6.0 | 0.00 | 0.00 | 0.00 | 53 | 1012.6 |
| 20260504224525 | 72 | 209 | 1.0 | 6.0 | 0.00 | 0.00 | 0.00 | 53 | 1012.6 |
| 20260504223024 | 73 | 222 | 1.0 | 9.0 | 0.00 | 0.00 | 0.00 | 49 | 1012.6 |
| 20260504221528 | 74 | 268 | 2.0 | 7.0 | 0.00 | 0.00 | 0.00 | 47 | 1012.7 |
| 20260504220022 | 74 | 244 | 1.0 | 7.0 | 0.00 | 0.00 | 0.00 | 47 | 1012.6 |
| 20260504214523 | 75 | 217 | 1.0 | 10.0 | 0.00 | 0.00 | 0.00 | 47 | 1012.6 |
| 20260504213148 | 76 | 188 | 1.0 | 6.0 | 0.00 | 0.00 | 0.00 | 47 | 1012.6 |
| 20260504211503 | 76 | 197 | 2.0 | 8.0 | 0.00 | 0.00 | 0.00 | 47 | 1012.7 |
| 20260504210043 | 76 | 319 | 2.0 | 7.0 | 0.00 | 0.00 | 0.00 | 46 | 1012.7 |
| 20260504204541 | 76 | 176 | 3.0 | 8.0 | 0.00 | 0.00 | 0.00 | 46 | 1012.9 |
| 20260504203023 | 75 | 324 | 2.0 | 7.0 | 0.00 | 0.00 | 0.00 | 47 | 1013.0 |
| 20260504201526 | 76 | 216 | 2.0 | 11.0 | 0.00 | 0.00 | 0.00 | 48 | 1013.1 |
| 20260504200003 | 76 | 192 | 1.0 | 7.0 | 0.00 | 0.00 | 0.00 | 48 | 1013.3 |
| 20260504194502 | 76 | 202 | 3.0 | 8.0 | 0.00 | 0.00 | 0.00 | 46 | 1013.5 |
| 20260504193110 | 75 | 181 | 0.0 | 5.0 | 0.00 | 0.00 | 0.00 | 53 | 1013.6 |
| 20260504191538 | 75 | 166 | 0.0 | 6.0 | 0.00 | 0.00 | 0.00 | 50 | 1014.0 |
| 20260504190036 | 75 | 214 | 1.0 | 5.0 | 0.00 | 0.00 | 0.00 | 52 | 1014.3 |
| 20260504184520 | 74 | 241 | 0.0 | 6.0 | 0.00 | 0.00 | 0.00 | 54 | 1014.6 |
| 20260504183021 | 74 | 311 | 1.0 | 4.0 | 0.00 | 0.00 | 0.00 | 51 | 1014.6 |
| 20260504181513 | 74 | 200 | 2.0 | 5.0 | 0.00 | 0.00 | 0.00 | 50 | 1014.8 |
| 20260504180012 | 74 | 183 | 1.0 | 3.0 | 0.00 | 0.00 | 0.00 | 53 | 1015.0 |
| 20260504174509 | 74 | 207 | 1.0 | 7.0 | 0.00 | 0.00 | 0.00 | 51 | 1015.2 |
| 20260504173010 | 73 | 234 | 2.0 | 9.0 | 0.00 | 0.00 | 0.00 | 53 | 1015.4 |
| 20260504171503 | 72 | 136 | 2.0 | 8.0 | 0.00 | 0.00 | 0.00 | 51 | 1015.6 |